createdAt,value
2023-04-02T00:00:37.580Z,56.57
2023-04-02T00:05:55.076Z,56.12
2023-04-02T00:11:02.470Z,56.03
2023-04-02T00:16:08.693Z,55.51
2023-04-02T00:21:26.290Z,56.06
2023-04-02T00:26:45.924Z,56.17
2023-04-02T00:31:52.032Z,58.00
2023-04-02T00:36:55.331Z,60.42
2023-04-02T00:42:05.432Z,60.03
2023-04-02T00:47:17.877Z,60.54
2023-04-02T00:52:25.681Z,60.54
2023-04-02T00:57:28.954Z,60.23
2023-04-02T01:02:36.008Z,60.15
2023-04-02T01:07:55.346Z,59.66
2023-04-02T01:13:22.843Z,59.34
2023-04-02T01:18:40.070Z,60.05
2023-04-02T01:23:56.478Z,60.01
2023-04-02T01:29:16.958Z,59.40
2023-04-02T01:34:25.162Z,59.75
2023-04-02T01:39:41.584Z,59.40
2023-04-02T01:44:53.562Z,60.01
2023-04-02T01:50:24.685Z,60.27
2023-04-02T01:55:51.021Z,60.52
2023-04-02T02:01:02.852Z,61.21
2023-04-02T02:06:07.694Z,61.21
2023-04-02T02:11:16.790Z,61.51
2023-04-02T02:16:20.038Z,61.11
2023-04-02T02:21:47.734Z,61.29
2023-04-02T02:27:05.344Z,60.84
2023-04-02T02:32:13.364Z,60.91
2023-04-02T02:37:28.925Z,60.32
2023-04-02T02:42:48.479Z,60.10
2023-04-02T02:47:54.029Z,60.50
2023-04-02T02:52:59.680Z,60.15
2023-04-02T02:58:14.775Z,59.98
2023-04-02T03:03:34.609Z,59.67
2023-04-02T03:08:49.604Z,59.69
2023-04-02T03:14:08.444Z,59.81
2023-04-02T03:19:21.059Z,59.44
2023-04-02T03:24:34.397Z,59.46
2023-04-02T03:29:42.960Z,59.25
2023-04-02T03:35:00.643Z,58.66
2023-04-02T03:40:15.612Z,58.70
2023-04-02T03:45:24.309Z,58.44
2023-04-02T03:50:45.633Z,58.70
2023-04-02T03:55:49.861Z,58.77
2023-04-02T04:01:12.743Z,58.57
2023-04-02T04:06:40.620Z,57.86
2023-04-02T04:11:51.170Z,58.23
2023-04-02T04:17:10.193Z,57.96
2023-04-02T04:22:20.502Z,58.19
2023-04-02T04:28:12.136Z,58.03
2023-04-02T04:33:29.385Z,57.76
2023-04-02T04:38:41.144Z,57.55
2023-04-02T04:43:56.566Z,57.82
2023-04-02T04:49:08.755Z,57.15
2023-04-02T04:54:15.470Z,57.05
2023-04-02T04:59:29.966Z,56.70
2023-04-02T05:04:39.518Z,57.05
2023-04-02T05:09:55.728Z,56.57
2023-04-02T05:15:22.140Z,56.02
2023-04-02T05:20:34.647Z,55.83
2023-04-02T05:25:49.799Z,55.29
2023-04-02T05:31:15.634Z,55.91
2023-04-02T05:36:46.921Z,56.73
2023-04-02T05:42:01.976Z,55.88
2023-04-02T05:47:25.712Z,57.08
2023-04-02T05:52:34.512Z,56.65
2023-04-02T05:58:21.392Z,57.64
2023-04-02T06:03:44.991Z,57.41
2023-04-02T06:08:58.061Z,57.72
2023-04-02T06:14:03.809Z,57.43
2023-04-02T06:19:14.022Z,56.95
2023-04-02T06:24:22.667Z,57.15
2023-04-02T06:29:39.899Z,58.27
2023-04-02T06:34:47.259Z,57.52
2023-04-02T06:39:52.730Z,56.80
2023-04-02T06:44:56.610Z,57.09
2023-04-02T06:50:48.228Z,56.64
2023-04-02T06:56:51.164Z,55.73
2023-04-02T07:02:13.523Z,54.38
2023-04-02T07:07:18.567Z,54.27
2023-04-02T07:12:25.561Z,52.01
2023-04-02T07:17:29.332Z,52.07
2023-04-02T07:22:32.338Z,50.36
2023-04-02T07:27:38.162Z,48.72
2023-04-02T07:32:41.688Z,48.07
2023-04-02T07:37:44.721Z,47.12
2023-04-02T07:42:47.809Z,47.07
2023-04-02T07:47:50.829Z,46.25
2023-04-02T07:52:53.843Z,45.19
2023-04-02T07:57:58.983Z,45.16
2023-04-02T08:03:01.963Z,43.87
2023-04-02T08:08:05.076Z,44.52
2023-04-02T08:13:08.251Z,44.34
2023-04-02T08:18:13.875Z,44.40
2023-04-02T08:23:18.304Z,43.34
2023-04-02T08:28:22.665Z,43.31
2023-04-02T08:33:26.443Z,42.49
2023-04-02T08:38:29.414Z,42.27
2023-04-02T08:43:41.059Z,43.00
2023-04-02T08:48:49.550Z,41.99
2023-04-02T08:53:55.966Z,41.86
2023-04-02T08:59:04.224Z,41.11
2023-04-02T09:04:15.783Z,41.67
2023-04-02T09:09:20.386Z,41.09
2023-04-02T09:14:45.151Z,41.00
2023-04-02T09:20:02.074Z,40.64
2023-04-02T09:25:12.624Z,40.65
2023-04-02T09:30:33.585Z,40.54
2023-04-02T09:35:54.761Z,41.69
2023-04-02T09:40:59.100Z,41.66
2023-04-02T09:46:36.823Z,41.89
2023-04-02T09:51:39.781Z,41.08
2023-04-02T09:57:01.501Z,40.40
2023-04-02T10:02:06.289Z,39.46
2023-04-02T10:07:31.027Z,39.58
2023-04-02T10:12:39.942Z,40.44
2023-04-02T10:17:44.490Z,40.59
2023-04-02T10:22:47.731Z,40.11
2023-04-02T10:28:02.754Z,40.17
2023-04-02T10:33:13.444Z,40.07
2023-04-02T10:38:31.757Z,39.81
2023-04-02T10:43:43.937Z,40.00
2023-04-02T10:48:57.696Z,40.34
2023-04-02T10:54:14.437Z,40.48
2023-04-02T10:59:27.766Z,40.26
2023-04-02T11:04:42.007Z,39.68
2023-04-02T11:09:49.069Z,40.95
2023-04-02T11:14:54.464Z,41.25
2023-04-02T11:20:35.805Z,41.10
2023-04-02T11:25:39.187Z,41.04
2023-04-02T11:30:42.887Z,41.33
2023-04-02T11:35:45.838Z,41.32
2023-04-02T11:40:51.047Z,42.09
2023-04-02T11:45:57.364Z,41.96
2023-04-02T11:51:05.022Z,42.51
2023-04-02T11:56:32.820Z,41.97
2023-04-02T12:02:10.410Z,42.23
2023-04-02T12:07:35.168Z,42.33
2023-04-02T12:12:39.663Z,42.22
2023-04-02T12:17:42.721Z,42.13
2023-04-02T12:22:51.600Z,42.19
2023-04-02T12:28:11.092Z,41.78
2023-04-02T12:33:28.081Z,41.95
2023-04-02T12:38:37.112Z,42.18
2023-04-02T12:43:40.368Z,42.19
2023-04-02T12:48:43.412Z,42.18
2023-04-02T12:53:52.155Z,43.04
2023-04-02T12:58:59.982Z,42.88
2023-04-02T13:04:12.642Z,43.22
2023-04-02T13:09:43.132Z,43.21
2023-04-02T13:14:46.217Z,43.15
2023-04-02T13:19:49.195Z,44.10
2023-04-02T13:24:56.633Z,43.69
2023-04-02T13:30:08.490Z,43.78
2023-04-02T13:35:11.467Z,44.42
2023-04-02T13:40:16.569Z,44.53
2023-04-02T13:45:30.389Z,45.20
2023-04-02T13:50:35.273Z,44.95
2023-04-02T13:55:42.451Z,44.93
2023-04-02T14:00:46.469Z,45.56
2023-04-02T14:06:02.527Z,45.82
2023-04-02T14:11:23.928Z,45.98
2023-04-02T14:16:48.416Z,45.65
2023-04-02T14:22:15.736Z,46.25
2023-04-02T14:27:44.737Z,46.63
2023-04-02T14:33:10.266Z,46.84
2023-04-02T14:38:16.350Z,46.79
2023-04-02T14:43:37.471Z,47.97
2023-04-02T14:49:15.428Z,47.76
2023-04-02T14:54:28.681Z,48.24
2023-04-02T14:59:37.178Z,48.52
2023-04-02T15:04:51.371Z,48.59
2023-04-02T15:10:11.576Z,48.72
2023-04-02T15:15:40.471Z,48.79
2023-04-02T15:21:00.270Z,49.12
2023-04-02T15:26:10.377Z,49.30
2023-04-02T15:31:15.079Z,49.55
2023-04-02T15:36:33.180Z,49.82
2023-04-02T15:41:43.001Z,49.76
2023-04-02T15:46:51.865Z,50.65
2023-04-02T15:52:13.083Z,50.68
2023-04-02T15:57:28.110Z,50.61
2023-04-02T16:02:51.470Z,50.83
2023-04-02T16:08:32.518Z,51.27
2023-04-02T16:13:37.495Z,51.46
2023-04-02T16:18:43.204Z,51.69
2023-04-02T16:23:46.350Z,52.33
2023-04-02T16:28:51.891Z,52.31
2023-04-02T16:34:08.443Z,52.39
2023-04-02T16:39:36.208Z,53.13
2023-04-02T16:45:12.912Z,53.19
2023-04-02T16:50:21.932Z,53.60
2023-04-02T16:55:41.067Z,53.92
2023-04-02T17:00:53.346Z,54.26
2023-04-02T17:06:06.471Z,54.41
2023-04-02T17:11:21.799Z,54.76
2023-04-02T17:16:45.725Z,54.98
2023-04-02T17:21:53.190Z,55.28
2023-04-02T17:27:11.687Z,55.79
2023-04-02T17:32:30.437Z,56.89
2023-04-02T17:37:47.700Z,57.22
2023-04-02T17:43:18.053Z,57.33
2023-04-02T17:48:56.184Z,56.99
2023-04-02T17:54:04.821Z,56.88
2023-04-02T17:59:26.621Z,56.65
2023-04-02T18:04:57.736Z,57.86
2023-04-02T18:10:28.100Z,58.28
2023-04-02T18:15:33.730Z,58.42
2023-04-02T18:21:31.967Z,58.53
2023-04-02T18:26:43.435Z,58.94
2023-04-02T18:31:46.661Z,59.27
2023-04-02T18:37:12.951Z,58.99
2023-04-02T18:42:43.391Z,58.87
2023-04-02T18:47:55.286Z,59.33
2023-04-02T18:52:58.558Z,59.95
2023-04-02T18:58:10.406Z,60.58
2023-04-02T19:03:20.907Z,60.23
2023-04-02T19:08:48.288Z,60.53
2023-04-02T19:13:51.726Z,61.41
2023-04-02T19:19:03.690Z,60.42
2023-04-02T19:24:21.617Z,60.99
2023-04-02T19:29:27.207Z,61.68
2023-04-02T19:34:40.285Z,62.00
2023-04-02T19:39:55.856Z,61.92
2023-04-02T19:44:59.213Z,61.72
2023-04-02T19:50:02.255Z,61.61
2023-04-02T19:55:05.721Z,61.42
2023-04-02T20:00:12.037Z,62.06
2023-04-02T20:05:14.966Z,61.78
2023-04-02T20:10:17.846Z,61.80
2023-04-02T20:15:20.843Z,62.07
2023-04-02T20:20:23.820Z,61.64
2023-04-02T20:25:26.997Z,62.40
2023-04-02T20:30:32.888Z,62.53
2023-04-02T20:35:37.939Z,62.38
2023-04-02T20:40:41.833Z,63.57
2023-04-02T20:45:54.902Z,63.12
2023-04-02T20:50:59.101Z,63.67
2023-04-02T20:56:10.450Z,63.73
2023-04-02T21:01:22.404Z,63.93
2023-04-02T21:06:28.044Z,64.01
2023-04-02T21:11:31.191Z,64.52
2023-04-02T21:16:34.314Z,64.83
2023-04-02T21:21:39.045Z,65.40
2023-04-02T21:26:42.385Z,65.49
2023-04-02T21:31:45.289Z,65.80
2023-04-02T21:36:49.442Z,65.74
2023-04-02T21:41:53.612Z,66.29
2023-04-02T21:46:56.670Z,66.33
2023-04-02T21:51:59.699Z,66.77
2023-04-02T21:57:02.655Z,67.21
2023-04-02T22:02:05.740Z,66.95
2023-04-02T22:07:08.668Z,67.86
2023-04-02T22:12:11.540Z,67.51
2023-04-02T22:17:14.519Z,67.98
2023-04-02T22:22:17.428Z,68.31
2023-04-02T22:27:20.398Z,68.47
2023-04-02T22:32:23.365Z,68.40
2023-04-02T22:37:26.403Z,68.45
2023-04-02T22:42:29.319Z,68.57
2023-04-02T22:47:32.305Z,68.59
2023-04-02T22:52:35.290Z,68.92
2023-04-02T22:57:38.272Z,68.79
2023-04-02T23:02:41.603Z,69.64
2023-04-02T23:07:44.488Z,69.92
2023-04-02T23:12:47.440Z,69.68
2023-04-02T23:17:50.399Z,69.69
2023-04-02T23:22:53.347Z,69.82
2023-04-02T23:27:56.639Z,69.68
2023-04-02T23:32:59.620Z,69.55
2023-04-02T23:38:02.622Z,69.81
2023-04-02T23:43:05.868Z,69.58
2023-04-02T23:48:08.922Z,69.54
2023-04-02T23:53:12.728Z,69.89
2023-04-02T23:58:15.836Z,69.78
